createdAt,value
2017-11-27T00:01:35.183Z,6.53
2017-11-27T00:04:01.762Z,8.43
2017-11-27T00:06:28.337Z,9.37
2017-11-27T00:08:54.919Z,8.30
2017-11-27T00:11:21.490Z,6.60
2017-11-27T00:13:48.074Z,12.20
2017-11-27T00:16:14.663Z,6.93
2017-11-27T00:18:41.230Z,7.50
2017-11-27T00:21:07.818Z,9.00
2017-11-27T00:23:34.387Z,8.73
2017-11-27T00:26:00.970Z,14.53
2017-11-27T00:28:27.554Z,8.53
2017-11-27T00:30:54.132Z,5.40
2017-11-27T00:33:20.725Z,3.80
2017-11-27T00:35:47.297Z,5.97
2017-11-27T00:38:13.877Z,7.23
2017-11-27T00:40:40.461Z,4.30
2017-11-27T00:43:07.049Z,5.27
2017-11-27T00:45:33.625Z,7.37
2017-11-27T00:48:00.202Z,4.13
2017-11-27T00:50:26.774Z,7.70
2017-11-27T00:52:53.357Z,9.97
2017-11-27T00:55:19.933Z,5.30
2017-11-27T00:57:46.531Z,9.40
2017-11-27T01:00:13.100Z,7.07
2017-11-27T01:02:39.690Z,5.83
2017-11-27T01:05:06.274Z,10.47
2017-11-27T01:07:32.844Z,5.50
2017-11-27T01:09:59.437Z,6.00
2017-11-27T01:12:26.014Z,7.63
2017-11-27T01:14:52.599Z,7.77
2017-11-27T01:17:19.182Z,6.27
2017-11-27T01:19:45.750Z,5.90
2017-11-27T01:22:12.343Z,10.13
2017-11-27T01:24:38.923Z,9.40
2017-11-27T01:27:05.511Z,8.17
2017-11-27T01:29:32.085Z,6.73
2017-11-27T01:31:58.666Z,13.60
2017-11-27T01:34:25.277Z,5.00
2017-11-27T01:36:51.835Z,5.17
2017-11-27T01:39:18.406Z,5.50
2017-11-27T01:41:44.995Z,9.30
2017-11-27T01:44:11.569Z,6.23
2017-11-27T01:46:38.170Z,8.33
2017-11-27T01:49:04.756Z,6.20
2017-11-27T01:51:31.325Z,6.70
2017-11-27T01:53:57.908Z,7.93
2017-11-27T01:56:24.483Z,6.23
2017-11-27T01:58:51.086Z,4.27
2017-11-27T02:01:17.657Z,3.47
2017-11-27T02:03:44.234Z,4.30
2017-11-27T02:06:10.818Z,10.30
2017-11-27T02:08:37.400Z,9.83
2017-11-27T02:11:04.000Z,7.17
2017-11-27T02:13:30.567Z,6.73
2017-11-27T02:15:57.144Z,7.10
2017-11-27T02:18:23.723Z,4.80
2017-11-27T02:20:50.294Z,7.23
2017-11-27T02:23:16.895Z,7.27
2017-11-27T02:25:43.470Z,6.40
2017-11-27T02:28:10.054Z,4.43
2017-11-27T02:30:36.643Z,7.70
2017-11-27T02:33:03.217Z,5.70
2017-11-27T02:35:29.794Z,7.43
2017-11-27T02:37:56.370Z,8.47
2017-11-27T02:40:22.946Z,7.07
2017-11-27T02:42:49.525Z,4.93
2017-11-27T02:45:16.128Z,5.47
2017-11-27T02:47:42.688Z,8.90
2017-11-27T02:50:09.274Z,7.30
2017-11-27T02:52:35.854Z,4.80
2017-11-27T02:55:02.426Z,7.50
2017-11-27T02:57:29.029Z,4.93
2017-11-27T02:59:55.772Z,5.50
2017-11-27T03:02:22.326Z,6.40
2017-11-27T03:04:48.936Z,5.97
2017-11-27T03:07:15.493Z,5.17
2017-11-27T03:09:42.067Z,3.80
2017-11-27T03:12:08.660Z,3.37
2017-11-27T03:14:35.225Z,6.67
2017-11-27T03:17:01.846Z,5.40
2017-11-27T03:19:28.434Z,4.73
2017-11-27T03:21:55.019Z,4.60
2017-11-27T03:24:21.602Z,7.43
2017-11-27T03:26:48.195Z,10.37
2017-11-27T03:29:14.770Z,4.70
2017-11-27T03:31:41.360Z,5.80
2017-11-27T03:34:07.994Z,7.57
2017-11-27T03:36:34.601Z,3.97
2017-11-27T03:39:01.157Z,5.10
2017-11-27T03:41:27.745Z,3.23
2017-11-27T03:43:54.328Z,3.33
2017-11-27T03:46:20.905Z,4.13
2017-11-27T03:48:47.477Z,3.80
2017-11-27T03:51:14.082Z,3.17
2017-11-27T03:53:40.662Z,7.50
2017-11-27T03:56:07.238Z,5.90
2017-11-27T03:58:33.813Z,8.70
2017-11-27T04:01:00.390Z,6.33
2017-11-27T04:03:26.962Z,4.57
2017-11-27T04:05:53.550Z,3.60
2017-11-27T04:08:20.146Z,5.57
2017-11-27T04:10:46.723Z,5.33
2017-11-27T04:13:13.301Z,3.17
2017-11-27T04:15:39.883Z,4.10
2017-11-27T04:18:06.468Z,3.57
2017-11-27T04:20:33.039Z,4.43
2017-11-27T04:22:59.618Z,5.37
2017-11-27T04:25:26.196Z,8.00
2017-11-27T04:27:52.814Z,3.40
2017-11-27T04:30:19.409Z,5.60
2017-11-27T04:32:46.003Z,4.00
2017-11-27T04:35:12.592Z,7.43
2017-11-27T04:37:39.171Z,3.43
2017-11-27T04:40:05.759Z,4.60
2017-11-27T04:42:32.332Z,2.73
2017-11-27T04:44:58.909Z,3.40
2017-11-27T04:47:25.497Z,3.67
2017-11-27T04:49:52.079Z,3.00
2017-11-27T04:52:18.649Z,4.47
2017-11-27T04:54:45.238Z,3.93
2017-11-27T04:57:11.816Z,4.83
2017-11-27T04:59:38.393Z,7.77
2017-11-27T05:02:04.982Z,4.33
2017-11-27T05:04:31.557Z,2.87
2017-11-27T05:06:58.139Z,2.70
2017-11-27T05:09:24.752Z,5.37
2017-11-27T05:11:51.307Z,4.80
2017-11-27T05:14:17.892Z,2.77
2017-11-27T05:16:44.478Z,4.83
2017-11-27T05:19:11.376Z,5.10
2017-11-27T05:21:37.949Z,7.00
2017-11-27T05:24:04.551Z,5.43
2017-11-27T05:26:31.130Z,5.07
2017-11-27T05:28:57.701Z,4.57
2017-11-27T05:31:28.665Z,3.50
2017-11-27T05:33:55.243Z,2.83
2017-11-27T05:36:21.813Z,4.93
2017-11-27T05:38:48.790Z,4.50
2017-11-27T05:41:15.345Z,5.80
2017-11-27T05:43:41.933Z,3.60
2017-11-27T05:46:08.514Z,4.87
2017-11-27T05:48:35.094Z,3.23
2017-11-27T05:51:01.669Z,6.47
2017-11-27T05:53:28.252Z,2.40
2017-11-27T05:55:54.843Z,8.47
2017-11-27T05:58:21.414Z,5.10
2017-11-27T06:00:48.027Z,4.93
2017-11-27T06:03:14.586Z,4.70
2017-11-27T06:05:41.182Z,5.33
2017-11-27T06:08:07.773Z,4.57
2017-11-27T06:10:34.345Z,3.50
2017-11-27T06:13:00.922Z,7.90
2017-11-27T06:15:27.521Z,3.33
2017-11-27T06:17:54.114Z,3.77
2017-11-27T06:20:20.678Z,6.73
2017-11-27T06:22:47.279Z,3.40
2017-11-27T06:25:13.858Z,3.47
2017-11-27T06:27:40.442Z,3.83
2017-11-27T06:30:07.354Z,8.10
2017-11-27T06:32:33.940Z,5.47
2017-11-27T06:35:00.527Z,5.37
2017-11-27T06:37:27.112Z,3.90
2017-11-27T06:39:53.677Z,4.87
2017-11-27T06:42:20.261Z,5.70
2017-11-27T06:44:46.846Z,5.70
2017-11-27T06:47:13.449Z,6.50
2017-11-27T06:49:40.006Z,2.87
2017-11-27T06:52:06.714Z,6.10
2017-11-27T06:54:33.312Z,4.40
2017-11-27T06:56:59.883Z,4.27
2017-11-27T06:59:26.485Z,3.80
2017-11-27T07:01:53.062Z,8.70
2017-11-27T07:04:19.641Z,3.97
2017-11-27T07:06:46.226Z,3.00
2017-11-27T07:09:12.802Z,4.97
2017-11-27T07:11:39.407Z,6.90
2017-11-27T07:14:05.993Z,3.83
2017-11-27T07:16:32.565Z,6.43
2017-11-27T07:18:59.142Z,4.97
2017-11-27T07:21:25.726Z,6.63
2017-11-27T07:23:52.302Z,4.33
2017-11-27T07:26:18.877Z,7.93
2017-11-27T07:28:45.459Z,6.90
2017-11-27T07:31:12.043Z,6.60
2017-11-27T07:33:38.616Z,7.10
2017-11-27T07:36:05.193Z,5.73
2017-11-27T07:38:37.578Z,9.17
2017-11-27T07:41:04.150Z,7.27
2017-11-27T07:43:30.729Z,7.33
2017-11-27T07:45:57.308Z,4.77
2017-11-27T07:48:23.882Z,6.40
2017-11-27T07:50:50.482Z,6.37
2017-11-27T07:53:17.061Z,7.83
2017-11-27T07:55:43.657Z,8.57
2017-11-27T07:58:10.254Z,6.50
2017-11-27T08:00:36.843Z,6.37
2017-11-27T08:03:03.428Z,11.47
2017-11-27T08:05:30.010Z,7.30
2017-11-27T08:07:56.606Z,5.13
2017-11-27T08:10:23.191Z,9.00
2017-11-27T08:12:49.778Z,7.87
2017-11-27T08:15:17.151Z,6.00
2017-11-27T08:17:43.753Z,6.83
2017-11-27T08:20:10.428Z,8.40
2017-11-27T08:22:37.018Z,5.70
2017-11-27T08:25:03.590Z,5.27
2017-11-27T08:27:30.182Z,9.60
2017-11-27T08:29:56.752Z,6.90
2017-11-27T08:32:23.321Z,8.73
2017-11-27T08:34:49.939Z,4.73
2017-11-27T08:37:16.501Z,9.43
2017-11-27T08:39:43.077Z,6.47
2017-11-27T08:42:09.682Z,7.20
2017-11-27T08:44:36.381Z,8.70
2017-11-27T08:47:02.959Z,13.00
2017-11-27T08:49:29.561Z,13.87
2017-11-27T08:51:56.148Z,17.40
2017-11-27T08:54:22.722Z,16.13
2017-11-27T08:56:49.318Z,12.07
2017-11-27T08:59:15.898Z,11.03
2017-11-27T09:01:42.482Z,9.23
2017-11-27T09:04:09.157Z,10.03
2017-11-27T09:06:35.713Z,11.83
2017-11-27T09:09:02.331Z,7.57
2017-11-27T09:11:28.925Z,6.73
2017-11-27T09:13:55.524Z,13.70
2017-11-27T09:16:22.094Z,10.00
2017-11-27T09:18:49.057Z,8.23
2017-11-27T09:21:15.601Z,11.83
2017-11-27T09:23:42.182Z,6.00
2017-11-27T09:26:08.771Z,5.80
2017-11-27T09:28:35.345Z,4.50
2017-11-27T09:31:02.317Z,5.50
2017-11-27T09:33:28.907Z,7.40
2017-11-27T09:35:55.473Z,5.57
2017-11-27T09:38:22.045Z,5.50
2017-11-27T09:40:48.631Z,3.57
2017-11-27T09:43:15.210Z,5.00
2017-11-27T09:45:41.803Z,4.30
2017-11-27T09:48:08.385Z,3.70
2017-11-27T09:50:34.958Z,3.83
2017-11-27T09:53:01.533Z,3.47
2017-11-27T09:55:28.135Z,3.30
2017-11-27T09:57:54.711Z,3.30
2017-11-27T10:00:21.287Z,2.70
2017-11-27T10:02:47.882Z,3.13
2017-11-27T10:05:14.462Z,1.90
2017-11-27T10:07:41.049Z,1.50
2017-11-27T10:10:07.649Z,1.80
2017-11-27T10:12:34.215Z,1.73
2017-11-27T10:15:00.798Z,1.43
2017-11-27T10:17:27.385Z,1.60
2017-11-27T10:19:53.974Z,1.67
2017-11-27T10:22:20.580Z,1.60
2017-11-27T10:24:47.154Z,1.30
2017-11-27T10:27:13.738Z,1.70
2017-11-27T10:29:40.312Z,2.33
2017-11-27T10:32:06.906Z,1.37
2017-11-27T10:34:33.482Z,1.20
2017-11-27T10:37:00.081Z,1.37
2017-11-27T10:39:26.682Z,1.00
2017-11-27T10:41:53.242Z,1.70
2017-11-27T10:44:19.866Z,1.13
2017-11-27T10:46:46.458Z,1.60
2017-11-27T10:49:13.036Z,1.87
2017-11-27T10:51:39.615Z,0.90
2017-11-27T10:54:06.201Z,0.90
2017-11-27T10:56:32.774Z,4.23
2017-11-27T10:58:59.347Z,1.60
2017-11-27T11:01:25.941Z,1.10
2017-11-27T11:03:52.534Z,1.80
2017-11-27T11:06:19.203Z,1.43
2017-11-27T11:08:45.801Z,1.10
2017-11-27T11:11:12.373Z,1.80
2017-11-27T11:13:38.952Z,1.00
2017-11-27T11:16:05.565Z,1.10
2017-11-27T11:18:32.137Z,1.10
2017-11-27T11:20:58.719Z,1.20
2017-11-27T11:23:25.322Z,1.13
2017-11-27T11:25:51.902Z,6.40
2017-11-27T11:28:18.473Z,1.23
2017-11-27T11:30:45.168Z,1.33
2017-11-27T11:33:11.825Z,1.30
2017-11-27T11:35:38.402Z,1.10
2017-11-27T11:38:05.469Z,1.07
2017-11-27T11:40:32.036Z,0.87
2017-11-27T11:42:58.618Z,1.30
2017-11-27T11:45:25.210Z,1.53
2017-11-27T11:47:51.778Z,2.87
2017-11-27T11:50:18.358Z,0.97
2017-11-27T11:52:44.947Z,0.87
2017-11-27T11:55:11.515Z,2.93
2017-11-27T11:57:38.090Z,1.63
2017-11-27T12:00:04.668Z,0.80
2017-11-27T12:02:31.247Z,0.90
2017-11-27T12:04:58.878Z,1.90
2017-11-27T12:07:25.568Z,1.00
2017-11-27T12:09:52.138Z,0.70
2017-11-27T12:12:18.717Z,1.37
2017-11-27T12:14:45.318Z,0.63
2017-11-27T12:17:11.891Z,0.60
2017-11-27T12:19:38.475Z,0.93
2017-11-27T12:22:05.066Z,0.80
2017-11-27T12:24:31.646Z,1.13
2017-11-27T12:26:58.234Z,1.03
2017-11-27T12:29:24.959Z,0.90
2017-11-27T12:31:51.533Z,0.70
2017-11-27T12:34:18.117Z,0.80
2017-11-27T12:36:45.797Z,0.73
2017-11-27T12:39:12.423Z,0.70
2017-11-27T12:41:39.813Z,0.70
2017-11-27T12:44:06.415Z,1.00
2017-11-27T12:46:32.986Z,1.07
2017-11-27T12:48:59.561Z,0.70
2017-11-27T12:51:26.150Z,0.80
2017-11-27T12:53:52.722Z,0.80
2017-11-27T12:56:19.294Z,1.27
2017-11-27T12:58:45.894Z,1.00
2017-11-27T13:01:12.470Z,0.80
2017-11-27T13:03:39.048Z,0.73
2017-11-27T13:06:05.659Z,0.67
2017-11-27T13:08:33.452Z,1.33
2017-11-27T13:11:00.031Z,1.10
2017-11-27T13:13:26.621Z,0.60
2017-11-27T13:15:53.197Z,0.90
2017-11-27T13:18:19.763Z,0.87
2017-11-27T13:20:46.354Z,1.90
2017-11-27T13:23:12.933Z,1.37
2017-11-27T13:25:39.510Z,0.73
2017-11-27T13:28:06.090Z,0.50
2017-11-27T13:30:32.660Z,0.70
2017-11-27T13:32:59.263Z,0.93
2017-11-27T13:35:25.855Z,1.10
2017-11-27T13:37:52.432Z,0.70
2017-11-27T13:40:18.999Z,0.60
2017-11-27T13:42:45.610Z,0.67
2017-11-27T13:45:12.182Z,0.70
2017-11-27T13:47:38.763Z,0.63
2017-11-27T13:50:05.357Z,0.80
2017-11-27T13:52:31.933Z,1.73
2017-11-27T13:54:58.661Z,0.87
2017-11-27T13:57:25.255Z,1.67
2017-11-27T13:59:51.828Z,6.00
2017-11-27T14:02:18.407Z,3.17
2017-11-27T14:04:44.993Z,1.60
2017-11-27T14:07:11.565Z,0.80
2017-11-27T14:09:38.188Z,1.57
2017-11-27T14:12:04.803Z,0.80
2017-11-27T14:14:31.416Z,6.30
2017-11-27T14:16:57.989Z,0.90
2017-11-27T14:19:24.681Z,0.70
2017-11-27T14:21:51.286Z,1.10
2017-11-27T14:24:17.877Z,0.70
2017-11-27T14:26:44.490Z,1.37
2017-11-27T14:29:11.086Z,0.80
2017-11-27T14:31:37.704Z,0.83
2017-11-27T14:34:04.289Z,0.70
2017-11-27T14:36:30.886Z,0.80
2017-11-27T14:38:57.461Z,0.80
2017-11-27T14:41:24.041Z,0.70
2017-11-27T14:43:50.620Z,0.70
2017-11-27T14:46:17.207Z,0.70
2017-11-27T14:48:43.782Z,0.60
2017-11-27T14:51:12.936Z,0.90
2017-11-27T14:53:39.613Z,0.63
2017-11-27T14:56:06.215Z,0.70
2017-11-27T14:58:32.800Z,0.80
2017-11-27T15:00:59.380Z,0.90
2017-11-27T15:03:25.982Z,0.60
2017-11-27T15:05:52.554Z,1.43
2017-11-27T15:08:19.146Z,0.70
2017-11-27T15:10:45.745Z,1.93
2017-11-27T15:13:12.335Z,0.97
2017-11-27T15:15:38.915Z,1.33
2017-11-27T15:18:05.498Z,1.00
2017-11-27T15:20:32.078Z,1.10
2017-11-27T15:22:58.658Z,1.00
2017-11-27T15:25:25.250Z,1.00
2017-11-27T15:27:51.835Z,1.07
2017-11-27T15:30:18.406Z,1.30
2017-11-27T15:32:44.993Z,0.80
2017-11-27T15:35:11.571Z,0.90
2017-11-27T15:37:38.160Z,0.73
2017-11-27T15:40:04.743Z,4.37
2017-11-27T15:42:31.301Z,0.70
2017-11-27T15:44:57.880Z,1.00
2017-11-27T15:47:24.467Z,0.97
2017-11-27T15:49:51.050Z,1.00
2017-11-27T15:52:17.631Z,0.90
2017-11-27T15:54:44.219Z,0.90
2017-11-27T15:57:10.790Z,1.20
2017-11-27T15:59:37.361Z,0.90
2017-11-27T16:02:03.959Z,1.07
2017-11-27T16:04:30.550Z,12.77
2017-11-27T16:06:57.130Z,1.70
2017-11-27T16:09:23.715Z,1.70
2017-11-27T16:11:50.305Z,2.90
2017-11-27T16:14:16.907Z,1.37
2017-11-27T16:16:43.516Z,2.23
2017-11-27T16:19:10.074Z,3.30
2017-11-27T16:21:36.651Z,2.20
2017-11-27T16:24:03.242Z,0.90
2017-11-27T16:26:29.813Z,1.07
2017-11-27T16:28:56.382Z,1.10
2017-11-27T16:31:22.977Z,1.17
2017-11-27T16:33:49.542Z,4.53
2017-11-27T16:36:16.110Z,1.40
2017-11-27T16:38:42.714Z,2.00
2017-11-27T16:41:09.295Z,1.90
2017-11-27T16:43:35.874Z,1.70
2017-11-27T16:46:02.462Z,1.23
2017-11-27T16:48:29.042Z,2.47
2017-11-27T16:50:55.634Z,1.03
2017-11-27T16:53:22.255Z,1.10
2017-11-27T16:55:48.883Z,1.10
2017-11-27T16:58:15.454Z,1.30
2017-11-27T17:00:42.200Z,1.20
2017-11-27T17:03:08.876Z,1.40
2017-11-27T17:05:35.455Z,1.20
2017-11-27T17:08:02.091Z,1.20
2017-11-27T17:10:28.718Z,1.17
2017-11-27T17:12:55.309Z,1.20
2017-11-27T17:15:21.906Z,1.50
2017-11-27T17:17:48.775Z,1.23
2017-11-27T17:20:15.367Z,1.50
2017-11-27T17:22:41.939Z,2.00
2017-11-27T17:25:08.784Z,1.50
2017-11-27T17:27:35.398Z,1.10
2017-11-27T17:30:02.003Z,1.33
2017-11-27T17:32:28.870Z,1.17
2017-11-27T17:34:55.450Z,0.80
2017-11-27T17:37:22.037Z,1.00
2017-11-27T17:39:48.621Z,0.90
2017-11-27T17:42:15.190Z,0.80
2017-11-27T17:44:41.799Z,1.60
2017-11-27T17:47:08.354Z,3.30
2017-11-27T17:49:34.930Z,2.20
2017-11-27T17:52:01.519Z,1.40
2017-11-27T17:54:28.104Z,1.00
2017-11-27T17:56:54.675Z,0.90
2017-11-27T17:59:21.258Z,1.30
2017-11-27T18:01:47.835Z,0.80
2017-11-27T18:04:14.420Z,0.80
2017-11-27T18:06:41.003Z,1.13
2017-11-27T18:09:07.586Z,1.03
2017-11-27T18:11:34.163Z,1.23
2017-11-27T18:14:00.746Z,1.50
2017-11-27T18:16:27.353Z,1.43
2017-11-27T18:18:53.921Z,1.30
2017-11-27T18:21:20.502Z,1.83
2017-11-27T18:23:47.082Z,1.10
2017-11-27T18:26:13.662Z,1.53
2017-11-27T18:28:40.250Z,0.80
2017-11-27T18:31:06.826Z,0.90
2017-11-27T18:33:33.403Z,1.33
2017-11-27T18:36:00.017Z,2.13
2017-11-27T18:38:26.598Z,0.87
2017-11-27T18:40:53.176Z,1.07
2017-11-27T18:43:19.761Z,0.90
2017-11-27T18:45:46.339Z,1.20
2017-11-27T18:48:12.910Z,1.05
2017-11-27T18:50:39.821Z,1.07
2017-11-27T18:53:06.387Z,0.90
2017-11-27T18:55:32.970Z,1.30
2017-11-27T18:57:59.545Z,3.80
2017-11-27T19:00:27.018Z,2.23
2017-11-27T19:02:53.590Z,2.10
2017-11-27T19:05:20.174Z,1.80
2017-11-27T19:07:46.749Z,2.63
2017-11-27T19:10:13.329Z,2.80
2017-11-27T19:12:39.915Z,1.70
2017-11-27T19:15:06.497Z,1.73
2017-11-27T19:17:33.070Z,1.40
2017-11-27T19:19:59.673Z,1.53
2017-11-27T19:22:26.245Z,1.00
2017-11-27T19:24:52.818Z,1.80
2017-11-27T19:27:19.530Z,1.53
2017-11-27T19:29:46.194Z,1.20
2017-11-27T19:32:12.762Z,1.47
2017-11-27T19:34:39.410Z,1.30
2017-11-27T19:37:06.099Z,1.23
2017-11-27T19:39:32.828Z,1.33
2017-11-27T19:41:59.411Z,1.30
2017-11-27T19:44:25.982Z,1.20
2017-11-27T19:46:52.563Z,1.20
2017-11-27T19:49:19.914Z,1.00
2017-11-27T19:51:46.522Z,1.27
2017-11-27T19:54:13.106Z,1.13
2017-11-27T19:56:39.744Z,1.00
2017-11-27T19:59:06.361Z,1.10
2017-11-27T20:01:32.934Z,1.00
2017-11-27T20:03:59.534Z,1.07
2017-11-27T20:06:26.356Z,20.50
2017-11-27T20:08:52.945Z,6.97
2017-11-27T20:11:19.564Z,1.57
2017-11-27T20:13:46.154Z,5.23
2017-11-27T20:16:12.759Z,1.67
2017-11-27T20:18:39.347Z,2.17
2017-11-27T20:21:05.943Z,2.10
2017-11-27T20:23:32.597Z,2.50
2017-11-27T20:25:59.226Z,1.90
2017-11-27T20:28:25.814Z,2.30
2017-11-27T20:30:53.274Z,1.50
2017-11-27T20:33:20.361Z,1.50
2017-11-27T20:35:46.930Z,2.00
2017-11-27T20:38:13.525Z,2.00
2017-11-27T20:40:41.631Z,2.27
2017-11-27T20:43:08.266Z,2.17
2017-11-27T20:48:29.489Z,1.57
2017-11-27T20:50:56.110Z,1.30
2017-11-27T20:53:22.686Z,3.67
2017-11-27T20:55:49.265Z,1.13
2017-11-27T20:58:16.161Z,1.00
2017-11-27T21:00:42.753Z,1.10
2017-11-27T21:03:09.355Z,1.20
2017-11-27T21:05:35.955Z,1.00
2017-11-27T21:10:39.200Z,1.33
2017-11-27T21:13:05.778Z,1.50
2017-11-27T21:15:32.391Z,1.57
2017-11-27T21:17:58.975Z,1.57
2017-11-27T21:20:25.547Z,1.20
2017-11-27T21:22:52.126Z,1.03
2017-11-27T21:25:18.725Z,1.20
2017-11-27T21:27:45.301Z,1.20
2017-11-27T21:30:11.888Z,1.67
2017-11-27T21:32:38.482Z,1.40
2017-11-27T21:35:05.046Z,1.60
2017-11-27T21:37:31.622Z,1.67
2017-11-27T21:39:58.203Z,1.57
2017-11-27T21:42:24.787Z,1.70
2017-11-27T21:44:51.347Z,1.50
2017-11-27T21:49:50.928Z,1.03
2017-11-27T21:52:17.511Z,1.77
2017-11-27T21:54:44.093Z,3.10
2017-11-27T21:57:10.678Z,2.83
2017-11-27T21:59:37.246Z,2.30
2017-11-27T22:02:03.837Z,1.20
2017-11-27T22:04:30.404Z,2.63
2017-11-27T22:06:57.008Z,5.10
2017-11-27T22:09:23.582Z,2.50
2017-11-27T22:11:50.155Z,2.50
2017-11-27T22:14:16.758Z,1.40
2017-11-27T22:16:43.362Z,5.27
2017-11-27T22:19:09.935Z,2.60
2017-11-27T22:21:36.526Z,1.50
2017-11-27T22:24:04.131Z,2.47
2017-11-27T22:26:30.705Z,3.17
2017-11-27T22:28:57.290Z,1.33
2017-11-27T22:31:23.867Z,6.90
2017-11-27T22:33:50.450Z,3.17
2017-11-27T22:36:17.018Z,1.33
2017-11-27T22:38:43.914Z,3.13
2017-11-27T22:41:10.500Z,3.43
2017-11-27T22:43:37.083Z,1.20
2017-11-27T22:46:03.661Z,1.03
2017-11-27T22:48:30.239Z,1.00
2017-11-27T22:50:56.942Z,3.87
2017-11-27T22:53:23.505Z,4.03
2017-11-27T22:55:50.080Z,2.37
2017-11-27T22:58:16.660Z,1.60
2017-11-27T23:00:43.235Z,5.37
2017-11-27T23:03:09.819Z,2.10
2017-11-27T23:05:36.413Z,4.37
2017-11-27T23:08:03.022Z,3.33
2017-11-27T23:10:29.600Z,1.40
2017-11-27T23:12:56.182Z,2.40
2017-11-27T23:15:22.759Z,3.50
2017-11-27T23:17:49.326Z,4.97
2017-11-27T23:20:15.910Z,4.10
2017-11-27T23:22:42.487Z,3.93
2017-11-27T23:25:09.059Z,2.30
2017-11-27T23:27:35.687Z,2.90
2017-11-27T23:30:02.259Z,2.03
2017-11-27T23:32:28.835Z,2.30
2017-11-27T23:34:55.419Z,2.40
2017-11-27T23:37:21.994Z,2.83
2017-11-27T23:39:48.570Z,2.20
2017-11-27T23:42:15.186Z,2.57
2017-11-27T23:44:41.774Z,2.20
2017-11-27T23:47:08.333Z,1.90
2017-11-27T23:49:34.923Z,1.97
2017-11-27T23:52:01.548Z,1.97
2017-11-27T23:54:28.120Z,1.97
2017-11-27T23:56:54.838Z,1.83
2017-11-27T23:59:21.647Z,3.53
